createdAt,value
2019-04-11T00:02:26.882Z,1.50
2019-04-11T00:04:57.323Z,1.50
2019-04-11T00:07:28.075Z,1.50
2019-04-11T00:09:58.861Z,1.50
2019-04-11T00:12:29.227Z,1.50
2019-04-11T00:15:00.173Z,1.50
2019-04-11T00:17:30.661Z,1.50
2019-04-11T00:20:02.151Z,1.50
2019-04-11T00:22:33.301Z,1.50
2019-04-11T00:25:04.079Z,1.50
2019-04-11T00:27:35.107Z,1.50
2019-04-11T00:30:10.106Z,1.40
2019-04-11T00:32:41.421Z,1.40
2019-04-11T00:35:12.235Z,1.50
2019-04-11T00:37:43.435Z,1.40
2019-04-11T00:40:15.182Z,1.40
2019-04-11T00:42:45.468Z,1.40
2019-04-11T00:45:15.931Z,1.40
2019-04-11T00:47:47.014Z,1.40
2019-04-11T00:50:17.417Z,1.40
2019-04-11T00:52:47.754Z,1.40
2019-04-11T00:55:18.307Z,1.40
2019-04-11T00:57:49.491Z,1.40
2019-04-11T01:00:20.989Z,1.40
2019-04-11T01:02:51.146Z,1.40
2019-04-11T01:05:21.431Z,1.40
2019-04-11T01:07:52.013Z,1.40
2019-04-11T01:10:22.380Z,1.50
2019-04-11T01:12:53.218Z,1.50
2019-04-11T01:15:24.260Z,1.50
2019-04-11T01:17:55.854Z,1.40
2019-04-11T01:20:27.189Z,1.50
2019-04-11T01:22:58.443Z,1.50
2019-04-11T01:25:28.822Z,1.50
2019-04-11T01:28:00.467Z,1.40
2019-04-11T01:30:34.561Z,1.40
2019-04-11T01:33:04.918Z,1.40
2019-04-11T01:35:35.265Z,1.40
2019-04-11T01:38:06.238Z,1.40
2019-04-11T01:40:36.773Z,1.40
2019-04-11T01:43:08.102Z,1.40
2019-04-11T01:45:38.397Z,1.50
2019-04-11T01:48:27.889Z,1.40
2019-04-11T01:50:59.081Z,1.50
2019-04-11T01:53:31.040Z,1.50
2019-04-11T01:56:01.253Z,1.50
2019-04-11T01:58:31.464Z,1.50
2019-04-11T02:01:12.635Z,1.50
2019-04-11T02:04:03.631Z,1.50
2019-04-11T02:06:34.142Z,1.50
2019-04-11T02:09:08.098Z,1.60
2019-04-11T02:11:39.450Z,1.50
2019-04-11T02:14:15.570Z,1.50
2019-04-11T02:16:43.209Z,1.50
2019-04-11T02:19:14.128Z,1.50
2019-04-11T02:21:44.825Z,1.50
2019-04-11T02:24:17.411Z,1.50
2019-04-11T02:27:06.515Z,1.50
2019-04-11T02:29:37.334Z,1.50
2019-04-11T02:32:09.684Z,1.50
2019-04-11T02:34:40.273Z,1.50
2019-04-11T02:37:10.950Z,1.50
2019-04-11T02:39:42.820Z,1.50
2019-04-11T02:42:14.812Z,1.50
2019-04-11T02:44:59.874Z,1.40
2019-04-11T02:47:22.941Z,1.40
2019-04-11T02:49:51.661Z,1.40
2019-04-11T02:52:22.936Z,1.40
2019-04-11T02:54:54.542Z,1.40
2019-04-11T02:57:25.892Z,1.40
2019-04-11T02:59:56.562Z,1.40
2019-04-11T03:02:27.098Z,1.40
2019-04-11T03:04:57.732Z,1.40
2019-04-11T03:07:29.895Z,1.40
2019-04-11T03:10:00.511Z,1.40
2019-04-11T03:12:31.953Z,1.40
2019-04-11T03:15:21.122Z,1.40
2019-04-11T03:17:40.335Z,1.40
2019-04-11T03:20:18.779Z,1.30
2019-04-11T03:22:40.636Z,1.40
2019-04-11T03:25:11.670Z,1.40
2019-04-11T03:27:43.342Z,1.40
2019-04-11T03:30:19.651Z,1.40
2019-04-11T03:33:50.329Z,1.40
2019-04-11T03:38:13.757Z,1.40
2019-04-11T03:40:43.745Z,1.30
2019-04-11T03:43:10.723Z,1.30
2019-04-11T03:45:49.645Z,1.30
2019-04-11T03:48:12.596Z,1.30
2019-04-11T03:50:32.849Z,1.30
2019-04-11T03:53:04.853Z,1.30
2019-04-11T03:55:36.942Z,1.30
2019-04-11T03:58:08.446Z,1.30
2019-04-11T04:00:43.877Z,1.40
2019-04-11T04:03:13.462Z,1.40
2019-04-11T04:05:44.654Z,1.40
2019-04-11T04:08:15.526Z,1.40
2019-04-11T04:11:05.927Z,1.40
2019-04-11T04:13:38.987Z,1.40
2019-04-11T04:16:26.062Z,1.40
2019-04-11T04:18:56.509Z,1.40
2019-04-11T04:21:42.644Z,1.40
2019-04-11T04:24:31.708Z,1.50
2019-04-11T04:27:01.722Z,1.50
2019-04-11T04:29:32.769Z,1.50
2019-04-11T04:32:05.468Z,1.50
2019-04-11T04:34:36.694Z,1.50
2019-04-11T04:37:07.886Z,1.50
2019-04-11T04:39:39.879Z,1.50
2019-04-11T04:42:21.290Z,1.50
2019-04-11T04:44:44.494Z,1.50
2019-04-11T04:47:22.322Z,1.50
2019-04-11T04:49:48.110Z,1.50
2019-04-11T04:52:18.841Z,1.50
2019-04-11T04:54:49.201Z,1.50
2019-04-11T04:57:20.226Z,1.50
2019-04-11T04:59:50.709Z,1.50
2019-04-11T05:02:21.244Z,1.50
2019-04-11T05:04:52.161Z,1.60
2019-04-11T05:07:23.620Z,1.60
2019-04-11T05:09:54.519Z,1.70
2019-04-11T05:12:26.170Z,1.70
2019-04-11T05:14:56.661Z,1.70
2019-04-11T05:17:28.868Z,1.70
2019-04-11T05:19:58.802Z,1.70
2019-04-11T05:22:29.159Z,1.80
2019-04-11T05:25:01.895Z,1.80
2019-04-11T05:27:31.846Z,1.80
2019-04-11T05:30:02.951Z,1.80
2019-04-11T05:32:33.523Z,1.80
2019-04-11T05:35:04.817Z,1.80
2019-04-11T05:37:36.184Z,1.90
2019-04-11T05:40:07.329Z,1.90
2019-04-11T05:42:37.781Z,1.90
2019-04-11T05:45:15.212Z,2.00
2019-04-11T05:47:40.396Z,2.00
2019-04-11T05:50:15.933Z,2.00
2019-04-11T05:52:46.481Z,2.10
2019-04-11T05:55:17.682Z,2.10
2019-04-11T05:57:47.984Z,2.10
2019-04-11T06:00:21.417Z,2.10
2019-04-11T06:02:53.378Z,2.20
2019-04-11T06:05:32.424Z,2.20
2019-04-11T06:08:02.513Z,2.20
2019-04-11T06:10:37.032Z,2.30
2019-04-11T06:13:18.574Z,2.30
2019-04-11T06:15:51.360Z,2.30
2019-04-11T06:18:43.634Z,2.40
2019-04-11T06:21:24.332Z,2.50
2019-04-11T06:24:12.640Z,2.50
2019-04-11T06:26:54.748Z,2.50
2019-04-11T06:29:28.081Z,2.60
2019-04-11T06:32:03.522Z,2.60
2019-04-11T06:34:35.566Z,2.60
2019-04-11T06:37:13.925Z,2.70
2019-04-11T06:39:47.160Z,2.80
2019-04-11T06:42:24.433Z,2.80
2019-04-11T06:45:04.136Z,2.90
2019-04-11T06:47:53.487Z,2.90
2019-04-11T06:50:25.391Z,2.90
2019-04-11T06:52:56.047Z,3.00
2019-04-11T06:55:28.969Z,3.10
2019-04-11T06:58:02.582Z,3.10
2019-04-11T07:00:33.615Z,3.20
2019-04-11T07:03:12.940Z,3.30
2019-04-11T07:05:39.033Z,3.30
2019-04-11T07:08:09.600Z,3.40
2019-04-11T07:10:48.775Z,3.40
2019-04-11T07:13:20.776Z,3.50
2019-04-11T07:15:51.044Z,3.60
2019-04-11T07:18:35.726Z,3.70
2019-04-11T07:21:10.612Z,3.70
2019-04-11T07:23:59.654Z,3.70
2019-04-11T07:26:32.958Z,3.60
2019-04-11T07:29:21.569Z,3.60
2019-04-11T07:31:56.989Z,3.60
2019-04-11T07:34:36.224Z,3.60
2019-04-11T07:37:25.992Z,3.70
2019-04-11T07:40:16.034Z,3.70
2019-04-11T07:43:08.882Z,3.80
2019-04-11T07:45:47.159Z,3.90
2019-04-11T07:48:19.379Z,4.00
2019-04-11T07:50:51.033Z,4.10
2019-04-11T07:53:24.394Z,4.30
2019-04-11T07:55:55.424Z,4.50
2019-04-11T07:58:28.529Z,4.50
2019-04-11T08:01:17.021Z,4.30
2019-04-11T08:04:04.376Z,4.30
2019-04-11T08:06:37.061Z,4.20
2019-04-11T08:09:09.697Z,4.20
2019-04-11T08:11:42.163Z,4.20
2019-04-11T08:14:14.070Z,4.10
2019-04-11T08:16:51.816Z,4.10
2019-04-11T08:19:40.762Z,4.10
2019-04-11T08:22:28.410Z,4.10
2019-04-11T08:25:02.989Z,4.20
2019-04-11T08:27:35.793Z,4.20
2019-04-11T08:30:06.909Z,4.20
2019-04-11T08:32:56.662Z,4.20
2019-04-11T08:35:37.370Z,4.20
2019-04-11T08:38:16.106Z,4.20
2019-04-11T08:40:54.075Z,4.20
2019-04-11T08:43:32.089Z,4.30
2019-04-11T08:46:04.713Z,4.40
2019-04-11T08:48:37.192Z,4.60
2019-04-11T08:51:09.718Z,4.60
2019-04-11T08:53:44.816Z,4.80
2019-04-11T08:56:16.860Z,4.90
2019-04-11T08:59:11.610Z,5.00
2019-04-11T09:01:42.413Z,5.20
2019-04-11T09:04:30.300Z,5.20
2019-04-11T09:07:01.095Z,5.10
2019-04-11T09:09:49.429Z,5.00
2019-04-11T09:12:20.581Z,4.90
2019-04-11T09:15:08.637Z,4.80
2019-04-11T09:17:48.415Z,4.70
2019-04-11T09:20:15.584Z,4.70
2019-04-11T09:22:47.396Z,4.60
2019-04-11T09:25:35.492Z,4.60
2019-04-11T09:28:13.383Z,4.50
2019-04-11T09:30:51.253Z,4.50
2019-04-11T09:33:41.472Z,4.40
2019-04-11T09:36:30.623Z,4.50
2019-04-11T09:39:02.857Z,4.60
2019-04-11T09:41:40.796Z,4.80
2019-04-11T09:44:29.113Z,4.90
2019-04-11T09:47:17.349Z,5.00
2019-04-11T09:49:52.153Z,5.00
2019-04-11T09:52:33.260Z,5.10
2019-04-11T09:55:08.598Z,5.10
2019-04-11T09:57:44.168Z,5.20
2019-04-11T10:00:20.695Z,5.20
2019-04-11T10:02:52.856Z,5.20
2019-04-11T10:05:27.977Z,5.40
2019-04-11T10:08:02.439Z,5.50
2019-04-11T10:10:43.156Z,5.60
2019-04-11T10:13:18.476Z,5.80
2019-04-11T10:15:51.526Z,6.00
2019-04-11T10:18:27.802Z,6.50
2019-04-11T10:20:57.071Z,6.60
2019-04-11T10:23:45.236Z,6.60
2019-04-11T10:26:16.021Z,6.50
2019-04-11T10:29:04.403Z,6.50
2019-04-11T10:31:36.753Z,6.40
2019-04-11T10:34:09.198Z,6.40
2019-04-11T10:36:41.872Z,6.50
2019-04-11T10:39:29.195Z,6.50
2019-04-11T10:42:04.279Z,6.70
2019-04-11T10:44:52.565Z,6.80
2019-04-11T10:47:36.878Z,6.90
2019-04-11T10:50:15.487Z,6.80
2019-04-11T10:52:48.777Z,6.60
2019-04-11T10:55:21.846Z,6.40
2019-04-11T10:58:03.068Z,6.30
2019-04-11T11:00:37.833Z,6.20
2019-04-11T11:03:13.701Z,6.00
2019-04-11T11:05:45.870Z,5.90
2019-04-11T11:08:17.725Z,5.90
2019-04-11T11:10:48.690Z,5.90
2019-04-11T11:13:36.841Z,5.90
2019-04-11T11:16:07.773Z,5.90
2019-04-11T11:19:15.639Z,6.00
2019-04-11T11:21:17.547Z,6.30
2019-04-11T11:24:07.687Z,6.70
2019-04-11T11:26:39.053Z,7.30
2019-04-11T11:29:29.425Z,7.50
2019-04-11T11:32:02.903Z,7.70
2019-04-11T11:34:41.119Z,7.70
2019-04-11T11:37:14.137Z,7.60
2019-04-11T11:40:04.454Z,7.50
2019-04-11T11:42:47.977Z,7.20
2019-04-11T11:45:35.961Z,6.90
2019-04-11T11:48:24.828Z,6.80
2019-04-11T11:50:57.043Z,6.70
2019-04-11T11:53:29.960Z,6.60
2019-04-11T11:56:03.169Z,6.90
2019-04-11T11:58:51.892Z,7.10
2019-04-11T12:01:21.851Z,7.10
2019-04-11T12:04:01.912Z,7.10
2019-04-11T12:06:31.953Z,7.10
2019-04-11T12:09:09.927Z,7.10
2019-04-11T12:11:42.192Z,7.30
2019-04-11T12:14:30.452Z,7.30
2019-04-11T12:17:08.421Z,7.70
2019-04-11T12:19:47.939Z,7.80
2019-04-11T12:22:12.769Z,7.90
2019-04-11T12:24:44.968Z,7.80
2019-04-11T12:27:18.299Z,8.00
2019-04-11T12:30:07.904Z,8.00
2019-04-11T12:32:57.116Z,7.80
2019-04-11T12:35:32.617Z,7.60
2019-04-11T12:38:10.684Z,7.30
2019-04-11T12:40:58.801Z,7.00
2019-04-11T12:43:36.960Z,6.90
2019-04-11T12:46:19.350Z,6.90
2019-04-11T12:48:49.569Z,6.90
2019-04-11T12:51:38.045Z,7.00
2019-04-11T12:54:08.813Z,7.10
2019-04-11T12:56:46.626Z,7.30
2019-04-11T12:59:17.278Z,7.70
2019-04-11T13:02:01.401Z,7.60
2019-04-11T13:04:31.783Z,8.00
2019-04-11T13:07:20.433Z,8.10
2019-04-11T13:09:52.647Z,8.20
2019-04-11T13:12:33.376Z,8.20
2019-04-11T13:15:06.527Z,8.00
2019-04-11T13:17:38.573Z,7.70
2019-04-11T13:20:26.250Z,7.50
2019-04-11T13:22:58.254Z,7.40
2019-04-11T13:25:42.177Z,7.20
2019-04-11T13:28:12.569Z,7.10
2019-04-11T13:30:50.381Z,6.90
2019-04-11T13:33:21.733Z,6.70
2019-04-11T13:35:56.405Z,6.60
2019-04-11T13:38:28.366Z,6.60
2019-04-11T13:41:09.489Z,6.50
2019-04-11T13:43:41.549Z,6.30
2019-04-11T13:46:28.529Z,6.40
2019-04-11T13:49:15.477Z,6.40
2019-04-11T13:52:05.837Z,6.30
2019-04-11T13:54:43.701Z,6.30
2019-04-11T13:57:21.559Z,6.30
2019-04-11T14:00:10.144Z,6.30
2019-04-11T14:02:51.018Z,6.40
2019-04-11T14:05:19.012Z,6.60
2019-04-11T14:07:51.068Z,6.80
2019-04-11T14:10:22.653Z,7.20
2019-04-11T14:12:57.319Z,7.30
2019-04-11T14:15:29.509Z,7.40
2019-04-11T14:18:01.860Z,7.50
2019-04-11T14:20:33.873Z,7.40
2019-04-11T14:23:06.537Z,7.20
2019-04-11T14:25:50.801Z,7.20
2019-04-11T14:28:22.725Z,6.90
2019-04-11T14:31:11.046Z,6.70
2019-04-11T14:33:43.273Z,6.60
2019-04-11T14:36:33.733Z,6.30
2019-04-11T14:39:05.853Z,6.20
2019-04-11T14:41:43.473Z,6.00
2019-04-11T14:44:16.011Z,5.90
2019-04-11T14:46:54.000Z,5.90
2019-04-11T14:49:27.016Z,5.80
2019-04-11T14:52:07.220Z,5.60
2019-04-11T14:54:39.433Z,5.60
2019-04-11T14:57:23.304Z,5.60
2019-04-11T14:59:58.634Z,5.60
2019-04-11T15:02:36.292Z,5.60
2019-04-11T15:05:14.965Z,5.50
2019-04-11T15:07:46.124Z,5.60
2019-04-11T15:10:21.739Z,5.60
2019-04-11T15:12:53.448Z,5.50
2019-04-11T15:15:28.352Z,5.50
2019-04-11T15:18:00.593Z,5.50
2019-04-11T15:20:53.809Z,5.50
2019-04-11T15:23:17.833Z,5.50
2019-04-11T15:26:08.722Z,5.40
2019-04-11T15:28:49.729Z,5.40
2019-04-11T15:31:39.086Z,5.40
2019-04-11T15:34:10.308Z,5.30
2019-04-11T15:36:45.225Z,5.20
2019-04-11T15:39:44.125Z,5.20
2019-04-11T15:42:09.934Z,5.10
2019-04-11T15:44:49.556Z,5.00
2019-04-11T15:47:21.244Z,4.90
2019-04-11T15:50:09.317Z,4.90
2019-04-11T15:52:41.253Z,4.80
2019-04-11T15:55:29.678Z,4.80
2019-04-11T15:57:59.957Z,4.80
2019-04-11T16:00:31.890Z,4.80
2019-04-11T16:03:03.730Z,4.70
2019-04-11T16:05:41.547Z,4.60
2019-04-11T16:08:32.029Z,4.60
2019-04-11T16:11:06.661Z,4.60
2019-04-11T16:13:53.841Z,4.60
2019-04-11T16:16:25.706Z,4.60
2019-04-11T16:19:14.744Z,4.60
2019-04-11T16:22:04.093Z,4.60
2019-04-11T16:24:38.837Z,4.60
2019-04-11T16:27:16.721Z,4.60
2019-04-11T16:29:51.617Z,4.60
2019-04-11T16:32:22.396Z,4.60
2019-04-11T16:35:06.301Z,4.50
2019-04-11T16:37:36.687Z,4.50
2019-04-11T16:40:17.930Z,4.50
2019-04-11T16:42:48.496Z,4.40
2019-04-11T16:45:24.992Z,4.40
2019-04-11T16:47:56.969Z,4.40
2019-04-11T16:50:27.249Z,4.30
2019-04-11T16:52:57.531Z,4.30
2019-04-11T16:55:27.893Z,4.20
2019-04-11T16:57:58.393Z,4.20
2019-04-11T17:00:28.521Z,4.10
2019-04-11T17:02:58.912Z,4.00
2019-04-11T17:05:29.341Z,4.00
2019-04-11T17:08:04.008Z,4.00
2019-04-11T17:10:52.139Z,4.00
2019-04-11T17:13:23.778Z,4.00
2019-04-11T17:15:54.405Z,4.00
2019-04-11T17:18:24.765Z,4.00
2019-04-11T17:20:55.127Z,3.90
2019-04-11T17:23:25.601Z,3.90
2019-04-11T17:25:55.893Z,3.80
2019-04-11T17:28:26.478Z,3.80
2019-04-11T17:30:56.755Z,3.70
2019-04-11T17:33:28.627Z,3.70
2019-04-11T17:36:01.909Z,3.60
2019-04-11T17:38:31.113Z,3.60
2019-04-11T17:41:01.327Z,3.60
2019-04-11T17:43:31.612Z,3.50
2019-04-11T17:46:01.883Z,3.40
2019-04-11T17:48:32.173Z,3.40
2019-04-11T17:51:04.853Z,3.30
2019-04-11T17:53:34.629Z,3.20
2019-04-11T17:56:05.101Z,3.10
2019-04-11T17:58:35.512Z,3.10
2019-04-11T18:01:06.682Z,3.00
2019-04-11T18:03:37.472Z,2.90
2019-04-11T18:06:07.869Z,2.90
2019-04-11T18:08:38.020Z,2.80
2019-04-11T18:11:08.285Z,2.80
2019-04-11T18:13:38.526Z,2.70
2019-04-11T18:16:09.057Z,2.60
2019-04-11T18:18:39.558Z,2.50
2019-04-11T18:21:09.996Z,2.50
2019-04-11T18:23:40.429Z,2.40
2019-04-11T18:26:10.702Z,2.30
2019-04-11T18:28:40.985Z,2.20
2019-04-11T18:31:11.253Z,2.10
2019-04-11T18:33:41.731Z,2.10
2019-04-11T18:36:12.009Z,2.00
2019-04-11T18:38:42.217Z,2.00
2019-04-11T18:41:13.709Z,1.90
2019-04-11T18:43:44.808Z,1.90
2019-04-11T18:46:16.225Z,1.80
2019-04-11T18:48:46.709Z,1.80
2019-04-11T18:51:17.153Z,1.80
2019-04-11T18:53:47.441Z,1.70
2019-04-11T18:56:18.049Z,1.70
2019-04-11T18:58:48.841Z,1.70
2019-04-11T19:01:19.393Z,1.60
2019-04-11T19:03:49.705Z,1.60
2019-04-11T19:06:27.673Z,1.60
2019-04-11T19:08:52.022Z,1.60
2019-04-11T19:11:22.341Z,1.50
2019-04-11T19:13:52.621Z,1.40
2019-04-11T19:16:23.032Z,1.40
2019-04-11T19:18:53.377Z,1.40
2019-04-11T19:21:23.592Z,1.40
2019-04-11T19:23:53.739Z,1.30
2019-04-11T19:26:24.013Z,1.30
2019-04-11T19:28:55.237Z,1.30
2019-04-11T19:31:28.193Z,1.30
2019-04-11T19:33:58.030Z,1.20
2019-04-11T19:36:28.701Z,1.10
2019-04-11T19:39:01.126Z,1.10
2019-04-11T19:41:31.193Z,1.00
2019-04-11T19:44:01.657Z,0.90
2019-04-11T19:46:31.940Z,0.90
2019-04-11T19:49:02.141Z,0.90
2019-04-11T19:51:32.428Z,0.90
2019-04-11T19:54:03.389Z,0.80
2019-04-11T19:56:35.933Z,0.80
2019-04-11T19:59:06.146Z,0.80
2019-04-11T20:01:36.441Z,0.70
2019-04-11T20:04:06.885Z,0.70
2019-04-11T20:06:37.197Z,0.70
2019-04-11T20:09:08.505Z,0.70
2019-04-11T20:11:38.916Z,0.60
2019-04-11T20:14:09.326Z,0.60
2019-04-11T20:16:42.781Z,0.60
2019-04-11T20:19:11.467Z,0.50
2019-04-11T20:21:41.748Z,0.50
2019-04-11T20:24:14.115Z,0.40
2019-04-11T20:26:44.194Z,0.30
2019-04-11T20:29:14.745Z,0.30
2019-04-11T20:31:44.950Z,0.20
2019-04-11T20:34:26.870Z,0.20
2019-04-11T20:36:48.432Z,0.20
2019-04-11T20:39:18.817Z,0.10
2019-04-11T20:41:53.217Z,0.20
2019-04-11T20:44:21.329Z,0.10
2019-04-11T20:46:51.724Z,0.10
2019-04-11T20:49:22.005Z,0.10
2019-04-11T20:51:52.341Z,0.10
2019-04-11T20:54:22.629Z,0.10
2019-04-11T20:56:52.848Z,0.00
2019-04-11T20:59:34.038Z,0.00
2019-04-11T21:01:56.431Z,0.00
2019-04-11T21:04:27.174Z,-0.10
2019-04-11T21:07:01.787Z,-0.10
2019-04-11T21:09:32.995Z,-0.10
2019-04-11T21:12:01.549Z,-0.10
2019-04-11T21:14:31.825Z,-0.20
2019-04-11T21:17:02.318Z,-0.20
2019-04-11T21:19:32.697Z,-0.20
2019-04-11T21:22:02.994Z,-0.30
2019-04-11T21:24:33.289Z,-0.30
2019-04-11T21:27:03.665Z,-0.30
2019-04-11T21:29:34.041Z,-0.40
2019-04-11T21:32:04.600Z,-0.40
2019-04-11T21:34:34.752Z,-0.40
2019-04-11T21:37:05.120Z,-0.40
2019-04-11T21:39:35.349Z,-0.40
2019-04-11T21:42:06.645Z,-0.40
2019-04-11T21:44:37.033Z,-0.50
2019-04-11T21:47:07.909Z,-0.50
2019-04-11T21:49:38.274Z,-0.50
2019-04-11T21:52:12.046Z,-0.50
2019-04-11T21:54:45.117Z,-0.60
2019-04-11T21:57:12.623Z,-0.60
2019-04-11T21:59:43.005Z,-0.60
2019-04-11T22:02:14.757Z,-0.60
2019-04-11T22:04:45.049Z,-0.60
2019-04-11T22:07:15.346Z,-0.60
2019-04-11T22:09:45.489Z,-0.60
2019-04-11T22:12:15.845Z,-0.70
2019-04-11T22:14:46.608Z,-0.70
2019-04-11T22:17:16.884Z,-0.70
2019-04-11T22:19:47.105Z,-0.70
2019-04-11T22:22:17.324Z,-0.80
2019-04-11T22:24:47.920Z,-0.80
2019-04-11T22:27:22.025Z,-0.80
2019-04-11T22:29:50.081Z,-0.80
2019-04-11T22:32:20.385Z,-0.80
2019-04-11T22:34:50.662Z,-0.80
2019-04-11T22:37:21.120Z,-0.80
2019-04-11T22:39:51.499Z,-0.80
2019-04-11T22:42:21.861Z,-0.90
2019-04-11T22:44:52.252Z,-0.90
2019-04-11T22:47:22.477Z,-0.90
2019-04-11T22:49:52.853Z,-0.90
2019-04-11T22:52:23.065Z,-0.90
2019-04-11T22:54:53.369Z,-0.90
2019-04-11T22:57:23.728Z,-1.10
2019-04-11T22:59:54.092Z,-1.20
2019-04-11T23:02:29.768Z,-1.20
2019-04-11T23:04:59.996Z,-1.20
2019-04-11T23:07:30.293Z,-1.20
2019-04-11T23:10:00.597Z,-1.20
2019-04-11T23:12:30.903Z,-1.20
2019-04-11T23:15:01.125Z,-1.30
2019-04-11T23:17:31.621Z,-1.30
2019-04-11T23:20:01.992Z,-1.30
2019-04-11T23:22:32.272Z,-1.30
2019-04-11T23:25:02.497Z,-1.30
2019-04-11T23:27:32.930Z,-1.30
2019-04-11T23:30:03.861Z,-1.30
2019-04-11T23:32:34.345Z,-1.40
2019-04-11T23:35:05.321Z,-1.40
2019-04-11T23:37:37.308Z,-1.40
2019-04-11T23:40:07.597Z,-1.40
2019-04-11T23:42:38.104Z,-1.40
2019-04-11T23:45:08.417Z,-1.40
2019-04-11T23:47:38.621Z,-1.40
2019-04-11T23:50:08.985Z,-1.40
2019-04-11T23:52:39.272Z,-1.40
2019-04-11T23:55:09.926Z,-1.40
2019-04-11T23:57:40.203Z,-1.40
